sensor_id;sensor_type;location;lat;lon;timestamp;P1;durP1;ratioP1;P2;durP2;ratioP2
66487;SDS011;53304;54.550;18.526;2023-04-15T00:02:15;10.20;;;7.10;;
66487;SDS011;53304;54.550;18.526;2023-04-15T00:04:42;11.43;;;7.40;;
66487;SDS011;53304;54.550;18.526;2023-04-15T00:07:13;11.10;;;7.18;;
66487;SDS011;53304;54.550;18.526;2023-04-15T00:09:39;10.90;;;7.35;;
66487;SDS011;53304;54.550;18.526;2023-04-15T00:12:05;11.63;;;7.55;;
66487;SDS011;53304;54.550;18.526;2023-04-15T00:14:34;10.23;;;7.28;;
66487;SDS011;53304;54.550;18.526;2023-04-15T00:17:03;12.27;;;7.60;;
66487;SDS011;53304;54.550;18.526;2023-04-15T00:19:29;10.93;;;7.68;;
66487;SDS011;53304;54.550;18.526;2023-04-15T00:22:00;12.07;;;8.05;;
66487;SDS011;53304;54.550;18.526;2023-04-15T00:24:26;12.55;;;7.28;;
66487;SDS011;53304;54.550;18.526;2023-04-15T00:26:55;12.80;;;7.75;;
66487;SDS011;53304;54.550;18.526;2023-04-15T00:29:21;11.23;;;7.47;;
66487;SDS011;53304;54.550;18.526;2023-04-15T00:31:46;11.48;;;7.43;;
66487;SDS011;53304;54.550;18.526;2023-04-15T00:34:14;12.05;;;7.65;;
66487;SDS011;53304;54.550;18.526;2023-04-15T00:36:39;12.05;;;8.00;;
66487;SDS011;53304;54.550;18.526;2023-04-15T00:39:05;9.98;;;7.50;;
66487;SDS011;53304;54.550;18.526;2023-04-15T00:41:30;10.68;;;7.53;;
66487;SDS011;53304;54.550;18.526;2023-04-15T00:44:00;11.25;;;7.88;;
66487;SDS011;53304;54.550;18.526;2023-04-15T00:46:28;12.18;;;7.38;;
66487;SDS011;53304;54.550;18.526;2023-04-15T00:48:58;12.13;;;7.90;;
66487;SDS011;53304;54.550;18.526;2023-04-15T00:51:29;10.57;;;7.65;;
66487;SDS011;53304;54.550;18.526;2023-04-15T00:54:01;11.43;;;7.85;;
66487;SDS011;53304;54.550;18.526;2023-04-15T00:56:29;10.68;;;7.50;;
66487;SDS011;53304;54.550;18.526;2023-04-15T00:58:59;11.25;;;7.85;;
66487;SDS011;53304;54.550;18.526;2023-04-15T01:01:26;11.55;;;7.60;;
66487;SDS011;53304;54.550;18.526;2023-04-15T01:03:53;10.95;;;8.00;;
66487;SDS011;53304;54.550;18.526;2023-04-15T01:06:20;11.20;;;7.95;;
66487;SDS011;53304;54.550;18.526;2023-04-15T01:08:46;10.73;;;7.85;;
66487;SDS011;53304;54.550;18.526;2023-04-15T01:11:11;11.60;;;7.68;;
66487;SDS011;53304;54.550;18.526;2023-04-15T01:13:37;12.60;;;8.05;;
66487;SDS011;53304;54.550;18.526;2023-04-15T01:16:03;11.63;;;7.82;;
66487;SDS011;53304;54.550;18.526;2023-04-15T01:18:29;11.27;;;7.90;;
66487;SDS011;53304;54.550;18.526;2023-04-15T01:20:55;10.98;;;7.60;;
66487;SDS011;53304;54.550;18.526;2023-04-15T01:23:23;10.27;;;6.93;;
66487;SDS011;53304;54.550;18.526;2023-04-15T01:25:51;12.25;;;7.55;;
66487;SDS011;53304;54.550;18.526;2023-04-15T01:28:19;11.77;;;7.80;;
66487;SDS011;53304;54.550;18.526;2023-04-15T01:30:45;10.88;;;8.40;;
66487;SDS011;53304;54.550;18.526;2023-04-15T01:33:10;9.85;;;7.50;;
66487;SDS011;53304;54.550;18.526;2023-04-15T01:35:36;9.98;;;7.57;;
66487;SDS011;53304;54.550;18.526;2023-04-15T01:38:05;11.50;;;7.60;;
66487;SDS011;53304;54.550;18.526;2023-04-15T01:40:34;10.63;;;7.35;;
66487;SDS011;53304;54.550;18.526;2023-04-15T01:43:00;11.88;;;8.10;;
66487;SDS011;53304;54.550;18.526;2023-04-15T01:45:28;13.32;;;7.72;;
66487;SDS011;53304;54.550;18.526;2023-04-15T01:47:54;10.63;;;7.38;;
66487;SDS011;53304;54.550;18.526;2023-04-15T01:50:19;11.00;;;7.47;;
66487;SDS011;53304;54.550;18.526;2023-04-15T01:52:47;11.30;;;8.10;;
66487;SDS011;53304;54.550;18.526;2023-04-15T01:55:15;12.32;;;8.05;;
66487;SDS011;53304;54.550;18.526;2023-04-15T01:57:45;11.32;;;7.38;;
66487;SDS011;53304;54.550;18.526;2023-04-15T02:00:11;11.60;;;7.85;;
66487;SDS011;53304;54.550;18.526;2023-04-15T02:02:37;11.85;;;7.68;;
66487;SDS011;53304;54.550;18.526;2023-04-15T02:05:05;11.82;;;7.65;;
66487;SDS011;53304;54.550;18.526;2023-04-15T02:07:33;10.68;;;7.47;;
66487;SDS011;53304;54.550;18.526;2023-04-15T02:09:58;10.52;;;7.25;;
66487;SDS011;53304;54.550;18.526;2023-04-15T02:12:26;11.50;;;7.82;;
66487;SDS011;53304;54.550;18.526;2023-04-15T02:14:52;11.07;;;7.38;;
66487;SDS011;53304;54.550;18.526;2023-04-15T02:17:17;9.65;;;7.07;;
66487;SDS011;53304;54.550;18.526;2023-04-15T02:19:45;18.30;;;7.70;;
66487;SDS011;53304;54.550;18.526;2023-04-15T02:22:12;10.25;;;7.13;;
66487;SDS011;53304;54.550;18.526;2023-04-15T02:24:42;11.13;;;7.72;;
66487;SDS011;53304;54.550;18.526;2023-04-15T02:27:14;9.95;;;7.18;;
66487;SDS011;53304;54.550;18.526;2023-04-15T02:29:43;12.43;;;7.20;;
66487;SDS011;53304;54.550;18.526;2023-04-15T02:32:11;10.25;;;7.03;;
66487;SDS011;53304;54.550;18.526;2023-04-15T02:34:40;11.60;;;7.40;;
66487;SDS011;53304;54.550;18.526;2023-04-15T02:37:10;10.52;;;6.90;;
66487;SDS011;53304;54.550;18.526;2023-04-15T02:39:36;11.90;;;7.50;;
66487;SDS011;53304;54.550;18.526;2023-04-15T02:42:04;10.07;;;6.90;;
66487;SDS011;53304;54.550;18.526;2023-04-15T02:44:34;10.48;;;7.07;;
66487;SDS011;53304;54.550;18.526;2023-04-15T02:47:00;9.95;;;6.90;;
66487;SDS011;53304;54.550;18.526;2023-04-15T02:49:25;10.02;;;7.13;;
66487;SDS011;53304;54.550;18.526;2023-04-15T02:51:53;10.38;;;6.78;;
66487;SDS011;53304;54.550;18.526;2023-04-15T02:54:19;11.02;;;7.28;;
66487;SDS011;53304;54.550;18.526;2023-04-15T02:56:47;9.50;;;7.10;;
66487;SDS011;53304;54.550;18.526;2023-04-15T02:59:15;12.88;;;7.07;;
66487;SDS011;53304;54.550;18.526;2023-04-15T03:05:02;10.57;;;7.15;;
66487;SDS011;53304;54.550;18.526;2023-04-15T03:07:31;10.15;;;7.07;;
66487;SDS011;53304;54.550;18.526;2023-04-15T03:09:59;10.73;;;7.30;;
66487;SDS011;53304;54.550;18.526;2023-04-15T03:12:26;12.18;;;7.55;;
66487;SDS011;53304;54.550;18.526;2023-04-15T03:14:52;9.55;;;7.13;;
66487;SDS011;53304;54.550;18.526;2023-04-15T03:17:20;10.07;;;7.40;;
66487;SDS011;53304;54.550;18.526;2023-04-15T03:19:46;9.38;;;7.00;;
66487;SDS011;53304;54.550;18.526;2023-04-15T03:22:11;13.00;;;6.90;;
66487;SDS011;53304;54.550;18.526;2023-04-15T03:24:39;11.32;;;7.10;;
66487;SDS011;53304;54.550;18.526;2023-04-15T03:27:07;12.88;;;7.30;;
66487;SDS011;53304;54.550;18.526;2023-04-15T03:29:34;11.32;;;7.13;;
66487;SDS011;53304;54.550;18.526;2023-04-15T03:32:00;10.63;;;7.32;;
66487;SDS011;53304;54.550;18.526;2023-04-15T03:34:30;10.38;;;7.53;;
66487;SDS011;53304;54.550;18.526;2023-04-15T03:36:58;10.73;;;6.95;;
66487;SDS011;53304;54.550;18.526;2023-04-15T03:39:26;11.52;;;7.63;;
66487;SDS011;53304;54.550;18.526;2023-04-15T03:41:51;10.90;;;7.10;;
66487;SDS011;53304;54.550;18.526;2023-04-15T03:44:17;10.57;;;7.03;;
66487;SDS011;53304;54.550;18.526;2023-04-15T03:46:45;12.32;;;7.35;;
66487;SDS011;53304;54.550;18.526;2023-04-15T03:49:10;17.48;;;6.97;;
66487;SDS011;53304;54.550;18.526;2023-04-15T03:51:38;12.43;;;7.25;;
66487;SDS011;53304;54.550;18.526;2023-04-15T03:54:03;9.98;;;7.18;;
66487;SDS011;53304;54.550;18.526;2023-04-15T03:56:31;16.13;;;7.95;;
66487;SDS011;53304;54.550;18.526;2023-04-15T03:58:56;12.38;;;7.75;;
66487;SDS011;53304;54.550;18.526;2023-04-15T04:01:22;12.13;;;8.00;;
66487;SDS011;53304;54.550;18.526;2023-04-15T04:03:50;12.02;;;7.65;;
66487;SDS011;53304;54.550;18.526;2023-04-15T04:06:18;11.88;;;7.90;;
66487;SDS011;53304;54.550;18.526;2023-04-15T04:08:43;11.43;;;7.50;;
66487;SDS011;53304;54.550;18.526;2023-04-15T04:11:12;10.50;;;7.50;;
66487;SDS011;53304;54.550;18.526;2023-04-15T04:13:37;12.02;;;7.68;;
66487;SDS011;53304;54.550;18.526;2023-04-15T04:16:03;11.50;;;7.65;;
66487;SDS011;53304;54.550;18.526;2023-04-15T04:18:29;11.13;;;7.60;;
66487;SDS011;53304;54.550;18.526;2023-04-15T04:20:58;13.77;;;7.82;;
66487;SDS011;53304;54.550;18.526;2023-04-15T04:23:24;11.20;;;7.88;;
66487;SDS011;53304;54.550;18.526;2023-04-15T04:25:51;10.98;;;7.55;;
66487;SDS011;53304;54.550;18.526;2023-04-15T04:28:17;12.00;;;7.75;;
66487;SDS011;53304;54.550;18.526;2023-04-15T04:30:42;12.48;;;7.68;;
66487;SDS011;53304;54.550;18.526;2023-04-15T04:33:08;10.57;;;7.07;;
66487;SDS011;53304;54.550;18.526;2023-04-15T04:35:36;10.80;;;7.68;;
66487;SDS011;53304;54.550;18.526;2023-04-15T04:38:02;11.82;;;7.40;;
66487;SDS011;53304;54.550;18.526;2023-04-15T04:40:28;11.80;;;7.88;;
66487;SDS011;53304;54.550;18.526;2023-04-15T04:42:53;10.70;;;7.10;;
66487;SDS011;53304;54.550;18.526;2023-04-15T04:45:19;10.00;;;7.30;;
66487;SDS011;53304;54.550;18.526;2023-04-15T04:47:47;11.68;;;7.40;;
66487;SDS011;53304;54.550;18.526;2023-04-15T04:50:14;10.57;;;7.00;;
66487;SDS011;53304;54.550;18.526;2023-04-15T04:52:44;10.85;;;7.45;;
66487;SDS011;53304;54.550;18.526;2023-04-15T04:55:10;11.35;;;8.00;;
66487;SDS011;53304;54.550;18.526;2023-04-15T04:57:36;9.20;;;7.07;;
66487;SDS011;53304;54.550;18.526;2023-04-15T05:00:04;11.50;;;7.25;;
66487;SDS011;53304;54.550;18.526;2023-04-15T05:02:32;9.18;;;6.95;;
66487;SDS011;53304;54.550;18.526;2023-04-15T05:04:57;9.98;;;7.13;;
66487;SDS011;53304;54.550;18.526;2023-04-15T05:07:25;12.00;;;7.10;;
66487;SDS011;53304;54.550;18.526;2023-04-15T05:09:53;10.18;;;7.10;;
66487;SDS011;53304;54.550;18.526;2023-04-15T05:12:21;11.32;;;6.90;;
66487;SDS011;53304;54.550;18.526;2023-04-15T05:14:48;12.02;;;7.53;;
66487;SDS011;53304;54.550;18.526;2023-04-15T05:17:16;10.55;;;6.80;;
66487;SDS011;53304;54.550;18.526;2023-04-15T05:19:41;10.38;;;7.00;;
66487;SDS011;53304;54.550;18.526;2023-04-15T05:22:07;16.63;;;6.80;;
66487;SDS011;53304;54.550;18.526;2023-04-15T05:24:35;13.38;;;7.10;;
66487;SDS011;53304;54.550;18.526;2023-04-15T05:27:02;12.18;;;6.55;;
66487;SDS011;53304;54.550;18.526;2023-04-15T05:29:28;10.43;;;6.53;;
66487;SDS011;53304;54.550;18.526;2023-04-15T05:31:54;10.25;;;6.30;;
66487;SDS011;53304;54.550;18.526;2023-04-15T05:34:22;10.70;;;6.57;;
66487;SDS011;53304;54.550;18.526;2023-04-15T05:36:48;10.25;;;6.97;;
66487;SDS011;53304;54.550;18.526;2023-04-15T05:39:13;16.52;;;6.70;;
66487;SDS011;53304;54.550;18.526;2023-04-15T05:41:41;10.65;;;6.90;;
66487;SDS011;53304;54.550;18.526;2023-04-15T05:44:06;10.45;;;6.50;;
66487;SDS011;53304;54.550;18.526;2023-04-15T05:46:34;10.77;;;6.80;;
66487;SDS011;53304;54.550;18.526;2023-04-15T05:48:59;11.13;;;7.00;;
66487;SDS011;53304;54.550;18.526;2023-04-15T05:51:25;12.13;;;6.75;;
66487;SDS011;53304;54.550;18.526;2023-04-15T05:53:50;8.93;;;6.28;;
66487;SDS011;53304;54.550;18.526;2023-04-15T05:56:15;13.05;;;6.60;;
66487;SDS011;53304;54.550;18.526;2023-04-15T05:58:41;10.15;;;6.45;;
66487;SDS011;53304;54.550;18.526;2023-04-15T06:01:11;11.02;;;6.60;;
66487;SDS011;53304;54.550;18.526;2023-04-15T06:03:39;13.93;;;6.78;;
66487;SDS011;53304;54.550;18.526;2023-04-15T06:06:05;11.18;;;7.00;;
66487;SDS011;53304;54.550;18.526;2023-04-15T06:08:31;11.38;;;6.90;;
66487;SDS011;53304;54.550;18.526;2023-04-15T06:10:57;14.02;;;6.13;;
66487;SDS011;53304;54.550;18.526;2023-04-15T06:13:23;9.77;;;6.03;;
66487;SDS011;53304;54.550;18.526;2023-04-15T06:15:48;9.43;;;6.18;;
66487;SDS011;53304;54.550;18.526;2023-04-15T06:18:16;12.02;;;6.32;;
66487;SDS011;53304;54.550;18.526;2023-04-15T06:20:46;9.52;;;6.40;;
66487;SDS011;53304;54.550;18.526;2023-04-15T06:23:12;11.60;;;6.95;;
66487;SDS011;53304;54.550;18.526;2023-04-15T06:25:37;8.90;;;6.13;;
66487;SDS011;53304;54.550;18.526;2023-04-15T06:28:05;8.88;;;6.28;;
66487;SDS011;53304;54.550;18.526;2023-04-15T06:30:33;11.10;;;6.25;;
66487;SDS011;53304;54.550;18.526;2023-04-15T06:33:00;10.48;;;5.93;;
66487;SDS011;53304;54.550;18.526;2023-04-15T06:35:25;8.57;;;5.78;;
66487;SDS011;53304;54.550;18.526;2023-04-15T06:37:51;10.77;;;5.85;;
66487;SDS011;53304;54.550;18.526;2023-04-15T06:40:16;10.68;;;6.20;;
66487;SDS011;53304;54.550;18.526;2023-04-15T06:42:44;13.30;;;6.60;;
66487;SDS011;53304;54.550;18.526;2023-04-15T06:45:10;14.50;;;6.47;;
66487;SDS011;53304;54.550;18.526;2023-04-15T06:47:36;22.80;;;6.70;;
66487;SDS011;53304;54.550;18.526;2023-04-15T06:50:01;30.85;;;7.60;;
66487;SDS011;53304;54.550;18.526;2023-04-15T06:52:30;20.15;;;6.60;;
66487;SDS011;53304;54.550;18.526;2023-04-15T06:54:55;13.15;;;6.00;;
66487;SDS011;53304;54.550;18.526;2023-04-15T06:57:23;18.88;;;6.90;;
66487;SDS011;53304;54.550;18.526;2023-04-15T06:59:53;13.90;;;6.50;;
66487;SDS011;53304;54.550;18.526;2023-04-15T07:02:19;11.25;;;5.97;;
66487;SDS011;53304;54.550;18.526;2023-04-15T07:04:44;15.07;;;6.82;;
66487;SDS011;53304;54.550;18.526;2023-04-15T07:07:12;12.25;;;5.70;;
66487;SDS011;53304;54.550;18.526;2023-04-15T07:09:39;13.88;;;6.20;;
66487;SDS011;53304;54.550;18.526;2023-04-15T07:12:04;15.00;;;5.57;;
66487;SDS011;53304;54.550;18.526;2023-04-15T07:14:30;11.82;;;6.00;;
66487;SDS011;53304;54.550;18.526;2023-04-15T07:16:57;16.77;;;5.93;;
66487;SDS011;53304;54.550;18.526;2023-04-15T07:19:26;13.65;;;5.65;;
66487;SDS011;53304;54.550;18.526;2023-04-15T07:21:51;9.90;;;5.50;;
66487;SDS011;53304;54.550;18.526;2023-04-15T07:24:17;13.57;;;5.88;;
66487;SDS011;53304;54.550;18.526;2023-04-15T07:26:44;9.68;;;5.95;;
66487;SDS011;53304;54.550;18.526;2023-04-15T07:29:10;14.77;;;5.47;;
66487;SDS011;53304;54.550;18.526;2023-04-15T07:31:40;11.77;;;5.80;;
66487;SDS011;53304;54.550;18.526;2023-04-15T07:34:06;9.23;;;5.70;;
66487;SDS011;53304;54.550;18.526;2023-04-15T07:36:34;12.38;;;5.90;;
66487;SDS011;53304;54.550;18.526;2023-04-15T07:38:59;10.23;;;5.72;;
66487;SDS011;53304;54.550;18.526;2023-04-15T07:41:30;10.50;;;5.90;;
66487;SDS011;53304;54.550;18.526;2023-04-15T07:43:58;9.27;;;5.80;;
66487;SDS011;53304;54.550;18.526;2023-04-15T07:46:29;10.15;;;6.00;;
66487;SDS011;53304;54.550;18.526;2023-04-15T07:48:54;9.63;;;5.82;;
66487;SDS011;53304;54.550;18.526;2023-04-15T07:51:23;11.55;;;5.53;;
66487;SDS011;53304;54.550;18.526;2023-04-15T07:53:50;10.77;;;5.70;;
66487;SDS011;53304;54.550;18.526;2023-04-15T07:56:16;9.60;;;5.85;;
66487;SDS011;53304;54.550;18.526;2023-04-15T07:58:43;10.60;;;5.55;;
66487;SDS011;53304;54.550;18.526;2023-04-15T08:01:11;9.63;;;5.85;;
66487;SDS011;53304;54.550;18.526;2023-04-15T08:03:39;11.35;;;5.55;;
66487;SDS011;53304;54.550;18.526;2023-04-15T08:06:05;8.80;;;5.68;;
66487;SDS011;53304;54.550;18.526;2023-04-15T08:08:33;8.63;;;5.00;;
66487;SDS011;53304;54.550;18.526;2023-04-15T08:11:01;10.80;;;4.75;;
66487;SDS011;53304;54.550;18.526;2023-04-15T08:13:28;17.52;;;5.75;;
66487;SDS011;53304;54.550;18.526;2023-04-15T08:18:46;14.32;;;6.05;;
66487;SDS011;53304;54.550;18.526;2023-04-15T08:21:17;18.83;;;5.75;;
66487;SDS011;53304;54.550;18.526;2023-04-15T08:23:43;13.75;;;6.50;;
66487;SDS011;53304;54.550;18.526;2023-04-15T08:26:09;18.27;;;6.90;;
66487;SDS011;53304;54.550;18.526;2023-04-15T08:28:35;21.02;;;7.20;;
66487;SDS011;53304;54.550;18.526;2023-04-15T08:31:04;17.90;;;6.53;;
66487;SDS011;53304;54.550;18.526;2023-04-15T08:33:30;18.65;;;6.30;;
66487;SDS011;53304;54.550;18.526;2023-04-15T08:35:58;17.60;;;6.80;;
66487;SDS011;53304;54.550;18.526;2023-04-15T08:38:23;13.77;;;6.13;;
66487;SDS011;53304;54.550;18.526;2023-04-15T08:40:51;12.60;;;6.18;;
66487;SDS011;53304;54.550;18.526;2023-04-15T08:43:23;15.45;;;6.95;;
66487;SDS011;53304;54.550;18.526;2023-04-15T08:45:52;13.05;;;6.75;;
66487;SDS011;53304;54.550;18.526;2023-04-15T08:48:18;18.90;;;6.75;;
66487;SDS011;53304;54.550;18.526;2023-04-15T08:50:47;15.65;;;6.43;;
66487;SDS011;53304;54.550;18.526;2023-04-15T08:53:17;15.32;;;6.35;;
66487;SDS011;53304;54.550;18.526;2023-04-15T08:55:44;16.52;;;6.78;;
66487;SDS011;53304;54.550;18.526;2023-04-15T08:58:10;17.52;;;6.30;;
66487;SDS011;53304;54.550;18.526;2023-04-15T09:00:40;17.00;;;6.95;;
66487;SDS011;53304;54.550;18.526;2023-04-15T09:03:08;14.38;;;6.35;;
66487;SDS011;53304;54.550;18.526;2023-04-15T09:05:39;17.13;;;6.53;;
66487;SDS011;53304;54.550;18.526;2023-04-15T09:08:09;14.45;;;6.60;;
66487;SDS011;53304;54.550;18.526;2023-04-15T09:10:35;17.52;;;7.07;;
66487;SDS011;53304;54.550;18.526;2023-04-15T09:13:02;15.45;;;6.93;;
66487;SDS011;53304;54.550;18.526;2023-04-15T09:15:31;13.45;;;6.53;;
66487;SDS011;53304;54.550;18.526;2023-04-15T09:17:57;14.70;;;6.68;;
66487;SDS011;53304;54.550;18.526;2023-04-15T09:20:27;14.45;;;7.03;;
66487;SDS011;53304;54.550;18.526;2023-04-15T09:22:53;12.05;;;6.47;;
66487;SDS011;53304;54.550;18.526;2023-04-15T09:30:20;10.68;;;5.90;;
66487;SDS011;53304;54.550;18.526;2023-04-15T09:32:55;14.35;;;6.07;;
66487;SDS011;53304;54.550;18.526;2023-04-15T09:35:37;12.45;;;6.30;;
66487;SDS011;53304;54.550;18.526;2023-04-15T09:38:06;13.32;;;5.75;;
66487;SDS011;53304;54.550;18.526;2023-04-15T09:40:38;11.07;;;5.50;;
66487;SDS011;53304;54.550;18.526;2023-04-15T09:43:09;12.77;;;5.97;;
66487;SDS011;53304;54.550;18.526;2023-04-15T09:45:45;12.63;;;5.75;;
66487;SDS011;53304;54.550;18.526;2023-04-15T09:48:24;10.93;;;5.82;;
66487;SDS011;53304;54.550;18.526;2023-04-15T09:50:58;12.13;;;5.93;;
66487;SDS011;53304;54.550;18.526;2023-04-15T09:53:26;11.40;;;5.85;;
66487;SDS011;53304;54.550;18.526;2023-04-15T09:55:57;13.13;;;6.13;;
66487;SDS011;53304;54.550;18.526;2023-04-15T09:58:26;10.40;;;5.32;;
66487;SDS011;53304;54.550;18.526;2023-04-15T10:00:55;9.43;;;5.35;;
66487;SDS011;53304;54.550;18.526;2023-04-15T10:03:27;12.57;;;5.43;;
66487;SDS011;53304;54.550;18.526;2023-04-15T10:05:56;11.67;;;5.60;;
66487;SDS011;53304;54.550;18.526;2023-04-15T10:08:29;9.68;;;5.40;;
66487;SDS011;53304;54.550;18.526;2023-04-15T10:10:59;8.55;;;4.90;;
66487;SDS011;53304;54.550;18.526;2023-04-15T10:13:27;10.90;;;5.38;;
66487;SDS011;53304;54.550;18.526;2023-04-15T10:18:31;8.65;;;4.90;;
66487;SDS011;53304;54.550;18.526;2023-04-15T10:20:59;10.00;;;5.03;;
66487;SDS011;53304;54.550;18.526;2023-04-15T10:23:25;13.05;;;5.03;;
66487;SDS011;53304;54.550;18.526;2023-04-15T10:25:54;9.48;;;5.30;;
66487;SDS011;53304;54.550;18.526;2023-04-15T10:28:22;10.50;;;5.43;;
66487;SDS011;53304;54.550;18.526;2023-04-15T10:30:48;11.65;;;6.07;;
66487;SDS011;53304;54.550;18.526;2023-04-15T10:33:17;9.27;;;5.05;;
66487;SDS011;53304;54.550;18.526;2023-04-15T10:35:45;12.05;;;5.60;;
66487;SDS011;53304;54.550;18.526;2023-04-15T10:41:20;10.27;;;5.28;;
66487;SDS011;53304;54.550;18.526;2023-04-15T10:44:05;9.20;;;5.00;;
66487;SDS011;53304;54.550;18.526;2023-04-15T10:46:37;9.40;;;5.47;;
66487;SDS011;53304;54.550;18.526;2023-04-15T10:49:11;7.38;;;5.03;;
66487;SDS011;53304;54.550;18.526;2023-04-15T10:51:37;8.75;;;4.78;;
66487;SDS011;53304;54.550;18.526;2023-04-15T10:54:30;8.05;;;5.20;;
66487;SDS011;53304;54.550;18.526;2023-04-15T10:57:06;7.80;;;4.63;;
66487;SDS011;53304;54.550;18.526;2023-04-15T11:05:11;8.68;;;4.93;;
66487;SDS011;53304;54.550;18.526;2023-04-15T11:12:45;9.98;;;5.22;;
66487;SDS011;53304;54.550;18.526;2023-04-15T11:18:09;7.45;;;4.72;;
66487;SDS011;53304;54.550;18.526;2023-04-15T11:20:49;7.47;;;4.75;;
66487;SDS011;53304;54.550;18.526;2023-04-15T11:23:19;7.78;;;4.85;;
66487;SDS011;53304;54.550;18.526;2023-04-15T11:25:55;8.60;;;4.93;;
66487;SDS011;53304;54.550;18.526;2023-04-15T11:28:32;8.18;;;4.95;;
66487;SDS011;53304;54.550;18.526;2023-04-15T11:31:04;7.63;;;5.05;;
66487;SDS011;53304;54.550;18.526;2023-04-15T11:33:34;7.60;;;4.63;;
66487;SDS011;53304;54.550;18.526;2023-04-15T11:36:00;6.88;;;4.40;;
66487;SDS011;53304;54.550;18.526;2023-04-15T11:38:25;7.35;;;4.80;;
66487;SDS011;53304;54.550;18.526;2023-04-15T11:40:56;7.60;;;4.80;;
66487;SDS011;53304;54.550;18.526;2023-04-15T11:43:22;8.27;;;5.10;;
66487;SDS011;53304;54.550;18.526;2023-04-15T11:45:49;8.90;;;4.75;;
66487;SDS011;53304;54.550;18.526;2023-04-15T11:48:27;7.68;;;4.50;;
66487;SDS011;53304;54.550;18.526;2023-04-15T11:50:54;8.68;;;4.97;;
66487;SDS011;53304;54.550;18.526;2023-04-15T11:53:21;8.23;;;5.22;;
66487;SDS011;53304;54.550;18.526;2023-04-15T11:56:03;6.88;;;4.65;;
66487;SDS011;53304;54.550;18.526;2023-04-15T11:58:33;7.05;;;4.70;;
66487;SDS011;53304;54.550;18.526;2023-04-15T12:01:02;8.60;;;4.75;;
66487;SDS011;53304;54.550;18.526;2023-04-15T12:11:41;7.28;;;4.57;;
66487;SDS011;53304;54.550;18.526;2023-04-15T12:14:22;8.40;;;4.70;;
66487;SDS011;53304;54.550;18.526;2023-04-15T12:21:50;8.10;;;4.75;;
66487;SDS011;53304;54.550;18.526;2023-04-15T12:24:26;6.22;;;4.60;;
66487;SDS011;53304;54.550;18.526;2023-04-15T12:26:55;7.63;;;4.80;;
66487;SDS011;53304;54.550;18.526;2023-04-15T12:29:25;8.52;;;4.55;;
66487;SDS011;53304;54.550;18.526;2023-04-15T12:31:53;9.07;;;4.78;;
66487;SDS011;53304;54.550;18.526;2023-04-15T12:34:29;7.93;;;4.45;;
66487;SDS011;53304;54.550;18.526;2023-04-15T12:36:58;6.47;;;4.30;;
66487;SDS011;53304;54.550;18.526;2023-04-15T12:39:28;7.45;;;4.40;;
66487;SDS011;53304;54.550;18.526;2023-04-15T12:41:55;7.63;;;4.45;;
66487;SDS011;53304;54.550;18.526;2023-04-15T12:44:23;7.07;;;4.53;;
66487;SDS011;53304;54.550;18.526;2023-04-15T12:46:53;6.47;;;4.18;;
66487;SDS011;53304;54.550;18.526;2023-04-15T12:49:20;6.85;;;4.40;;
66487;SDS011;53304;54.550;18.526;2023-04-15T12:51:47;6.93;;;4.50;;
66487;SDS011;53304;54.550;18.526;2023-04-15T12:54:17;6.05;;;4.00;;
66487;SDS011;53304;54.550;18.526;2023-04-15T12:56:46;7.05;;;4.40;;
66487;SDS011;53304;54.550;18.526;2023-04-15T12:59:14;8.55;;;4.90;;
66487;SDS011;53304;54.550;18.526;2023-04-15T13:01:45;7.03;;;4.50;;
66487;SDS011;53304;54.550;18.526;2023-04-15T13:04:11;7.68;;;4.68;;
66487;SDS011;53304;54.550;18.526;2023-04-15T13:06:37;7.30;;;4.53;;
66487;SDS011;53304;54.550;18.526;2023-04-15T13:09:03;7.03;;;4.60;;
66487;SDS011;53304;54.550;18.526;2023-04-15T13:11:29;6.57;;;4.30;;
66487;SDS011;53304;54.550;18.526;2023-04-15T13:14:01;6.70;;;4.15;;
66487;SDS011;53304;54.550;18.526;2023-04-15T13:16:34;7.20;;;4.50;;
66487;SDS011;53304;54.550;18.526;2023-04-15T13:19:02;8.10;;;4.70;;
66487;SDS011;53304;54.550;18.526;2023-04-15T13:21:27;6.80;;;4.47;;
66487;SDS011;53304;54.550;18.526;2023-04-15T13:23:53;7.22;;;4.35;;
66487;SDS011;53304;54.550;18.526;2023-04-15T13:26:22;7.68;;;4.28;;
66487;SDS011;53304;54.550;18.526;2023-04-15T13:28:49;7.35;;;4.35;;
66487;SDS011;53304;54.550;18.526;2023-04-15T13:31:15;7.47;;;4.47;;
66487;SDS011;53304;54.550;18.526;2023-04-15T13:33:40;6.00;;;3.72;;
66487;SDS011;53304;54.550;18.526;2023-04-15T13:36:08;7.25;;;4.40;;
66487;SDS011;53304;54.550;18.526;2023-04-15T13:38:33;6.78;;;4.43;;
66487;SDS011;53304;54.550;18.526;2023-04-15T13:41:01;6.65;;;4.50;;
66487;SDS011;53304;54.550;18.526;2023-04-15T13:43:31;6.50;;;4.03;;
66487;SDS011;53304;54.550;18.526;2023-04-15T13:45:59;6.30;;;3.75;;
66487;SDS011;53304;54.550;18.526;2023-04-15T13:48:25;6.70;;;4.30;;
66487;SDS011;53304;54.550;18.526;2023-04-15T13:50:55;7.70;;;4.20;;
66487;SDS011;53304;54.550;18.526;2023-04-15T13:53:20;6.47;;;3.97;;
66487;SDS011;53304;54.550;18.526;2023-04-15T13:55:48;6.88;;;4.25;;
66487;SDS011;53304;54.550;18.526;2023-04-15T13:58:14;6.50;;;4.30;;
66487;SDS011;53304;54.550;18.526;2023-04-15T14:00:41;7.05;;;4.57;;
66487;SDS011;53304;54.550;18.526;2023-04-15T14:03:09;7.20;;;4.13;;
66487;SDS011;53304;54.550;18.526;2023-04-15T14:05:35;6.60;;;4.35;;
66487;SDS011;53304;54.550;18.526;2023-04-15T14:08:00;6.22;;;4.00;;
66487;SDS011;53304;54.550;18.526;2023-04-15T14:10:30;6.85;;;4.20;;
66487;SDS011;53304;54.550;18.526;2023-04-15T14:12:56;6.35;;;4.00;;
66487;SDS011;53304;54.550;18.526;2023-04-15T14:15:21;6.97;;;4.00;;
66487;SDS011;53304;54.550;18.526;2023-04-15T14:17:46;6.45;;;4.00;;
66487;SDS011;53304;54.550;18.526;2023-04-15T14:20:17;6.43;;;4.03;;
66487;SDS011;53304;54.550;18.526;2023-04-15T14:22:44;8.18;;;4.00;;
66487;SDS011;53304;54.550;18.526;2023-04-15T14:25:12;7.07;;;3.97;;
66487;SDS011;53304;54.550;18.526;2023-04-15T14:27:40;6.97;;;4.45;;
66487;SDS011;53304;54.550;18.526;2023-04-15T14:30:09;7.32;;;4.05;;
66487;SDS011;53304;54.550;18.526;2023-04-15T14:32:37;6.45;;;3.80;;
66487;SDS011;53304;54.550;18.526;2023-04-15T14:35:05;6.25;;;3.97;;
66487;SDS011;53304;54.550;18.526;2023-04-15T14:37:33;7.03;;;4.05;;
66487;SDS011;53304;54.550;18.526;2023-04-15T14:40:03;6.38;;;4.00;;
66487;SDS011;53304;54.550;18.526;2023-04-15T14:42:30;6.05;;;3.83;;
66487;SDS011;53304;54.550;18.526;2023-04-15T14:44:55;6.60;;;3.90;;
66487;SDS011;53304;54.550;18.526;2023-04-15T14:47:20;6.15;;;4.00;;
66487;SDS011;53304;54.550;18.526;2023-04-15T14:49:46;5.85;;;3.83;;
66487;SDS011;53304;54.550;18.526;2023-04-15T14:52:14;5.40;;;3.45;;
66487;SDS011;53304;54.550;18.526;2023-04-15T14:54:42;7.00;;;4.13;;
66487;SDS011;53304;54.550;18.526;2023-04-15T14:57:10;7.35;;;4.30;;
66487;SDS011;53304;54.550;18.526;2023-04-15T14:59:38;11.90;;;4.55;;
66487;SDS011;53304;54.550;18.526;2023-04-15T15:02:03;9.30;;;4.53;;
66487;SDS011;53304;54.550;18.526;2023-04-15T15:04:29;7.35;;;4.07;;
66487;SDS011;53304;54.550;18.526;2023-04-15T15:06:56;12.05;;;4.18;;
66487;SDS011;53304;54.550;18.526;2023-04-15T15:09:22;9.15;;;4.40;;
66487;SDS011;53304;54.550;18.526;2023-04-15T15:11:48;10.85;;;4.20;;
66487;SDS011;53304;54.550;18.526;2023-04-15T15:14:13;6.93;;;4.00;;